createdAt,value
2018-08-24T00:02:05.477Z,77.01
2018-08-24T00:05:29.933Z,78.61
2018-08-24T00:08:54.421Z,81.72
2018-08-24T00:12:18.813Z,80.72
2018-08-24T00:15:43.239Z,80.56
2018-08-24T00:19:13.144Z,80.60
2018-08-24T00:22:37.579Z,78.55
2018-08-24T00:26:02.016Z,79.29
2018-08-24T00:29:26.432Z,80.66
2018-08-24T00:32:50.856Z,80.59
2018-08-24T00:36:15.277Z,80.36
2018-08-24T00:39:42.454Z,79.70
2018-08-24T00:43:06.940Z,78.65
2018-08-24T00:46:31.367Z,78.73
2018-08-24T00:49:55.788Z,78.68
2018-08-24T00:53:20.212Z,80.11
2018-08-24T00:56:44.608Z,80.34
2018-08-24T01:00:09.087Z,78.88
2018-08-24T01:03:33.519Z,79.70
2018-08-24T01:06:57.982Z,80.04
2018-08-24T01:10:26.359Z,78.39
2018-08-24T01:13:51.678Z,79.91
2018-08-24T01:17:21.479Z,81.18
2018-08-24T01:20:50.308Z,81.72
2018-08-24T01:24:14.755Z,81.60
2018-08-24T01:27:39.176Z,81.49
2018-08-24T01:31:05.216Z,80.90
2018-08-24T01:34:29.908Z,81.48
2018-08-24T01:37:54.359Z,81.22
2018-08-24T01:41:18.808Z,81.09
2018-08-24T01:44:43.238Z,81.87
2018-08-24T01:48:08.501Z,82.10
2018-08-24T01:51:32.907Z,82.47
2018-08-24T01:54:57.329Z,81.35
2018-08-24T01:58:21.769Z,82.30
2018-08-24T02:01:46.172Z,81.62
2018-08-24T02:05:10.656Z,82.62
2018-08-24T02:08:36.302Z,81.71
2018-08-24T02:12:00.705Z,81.98
2018-08-24T02:15:25.160Z,82.49
2018-08-24T02:18:54.888Z,82.20
2018-08-24T02:22:20.325Z,82.94
2018-08-24T02:25:44.745Z,82.39
2018-08-24T02:29:09.263Z,81.73
2018-08-24T02:32:33.729Z,82.08
2018-08-24T02:35:58.147Z,81.31
2018-08-24T02:39:22.572Z,82.04
2018-08-24T02:42:47.724Z,81.22
2018-08-24T02:46:12.218Z,81.25
2018-08-24T02:49:36.643Z,80.69
2018-08-24T02:53:01.048Z,79.66
2018-08-24T02:56:25.516Z,79.76
2018-08-24T02:59:49.976Z,79.98
2018-08-24T03:03:14.408Z,79.63
2018-08-24T03:06:38.980Z,80.04
2018-08-24T03:10:03.443Z,80.61
2018-08-24T03:13:27.854Z,80.00
2018-08-24T03:16:57.394Z,80.68
2018-08-24T03:20:22.259Z,79.80
2018-08-24T03:23:46.903Z,79.67
2018-08-24T03:27:11.343Z,78.79
2018-08-24T03:30:35.780Z,79.77
2018-08-24T03:34:00.232Z,79.19
2018-08-24T03:37:24.680Z,80.40
2018-08-24T03:40:49.113Z,79.67
2018-08-24T03:44:13.517Z,80.19
2018-08-24T03:47:37.943Z,78.77
2018-08-24T03:51:02.519Z,79.15
2018-08-24T03:54:26.966Z,79.07
2018-08-24T03:57:51.388Z,79.37
2018-08-24T04:01:15.817Z,78.16
2018-08-24T04:04:40.547Z,78.81
2018-08-24T04:08:04.961Z,78.32
2018-08-24T04:11:29.456Z,77.72
2018-08-24T04:14:53.893Z,76.83
2018-08-24T04:18:18.298Z,77.07
2018-08-24T04:21:42.760Z,76.61
2018-08-24T04:25:07.922Z,76.58
2018-08-24T04:28:32.366Z,77.79
2018-08-24T04:31:56.784Z,76.78
2018-08-24T04:35:21.204Z,77.37
2018-08-24T04:38:45.608Z,76.87
2018-08-24T04:42:10.081Z,77.69
2018-08-24T04:45:35.060Z,77.78
2018-08-24T04:48:59.568Z,77.44
2018-08-24T04:52:24.487Z,77.44
2018-08-24T04:55:48.908Z,76.90
2018-08-24T04:59:13.317Z,77.57
2018-08-24T05:02:37.835Z,76.90
2018-08-24T05:06:02.281Z,76.26
2018-08-24T05:09:26.723Z,77.42
2018-08-24T05:12:57.740Z,76.59
2018-08-24T05:16:22.214Z,76.28
2018-08-24T05:19:46.671Z,76.98
2018-08-24T05:23:11.217Z,76.73
2018-08-24T05:26:35.609Z,75.76
2018-08-24T05:30:00.104Z,76.52
2018-08-24T05:33:24.525Z,77.04
2018-08-24T05:36:48.964Z,76.18
2018-08-24T05:40:13.402Z,75.91
2018-08-24T05:43:37.896Z,76.99
2018-08-24T05:47:02.332Z,76.29
2018-08-24T05:50:26.995Z,76.55
2018-08-24T05:53:51.464Z,76.58
2018-08-24T05:57:16.007Z,76.89
2018-08-24T06:00:41.702Z,75.78
2018-08-24T06:04:06.177Z,75.80
2018-08-24T06:07:30.661Z,75.82
2018-08-24T06:10:55.213Z,76.24
2018-08-24T06:14:19.659Z,75.40
2018-08-24T06:17:50.268Z,74.86
2018-08-24T06:21:14.706Z,75.16
2018-08-24T06:24:39.131Z,74.93
2018-08-24T06:28:03.615Z,75.96
2018-08-24T06:31:28.069Z,75.53
2018-08-24T06:34:53.385Z,75.07
2018-08-24T06:38:17.810Z,74.87
2018-08-24T06:41:43.008Z,74.22
2018-08-24T06:45:07.994Z,74.04
2018-08-24T06:48:32.415Z,75.04
2018-08-24T06:51:56.874Z,75.18
2018-08-24T06:55:21.327Z,74.98
2018-08-24T06:58:45.761Z,73.87
2018-08-24T07:02:12.819Z,75.16
2018-08-24T07:05:37.276Z,73.77
2018-08-24T07:09:01.682Z,73.61
2018-08-24T07:12:26.105Z,73.36
2018-08-24T07:15:50.518Z,72.57
2018-08-24T07:19:14.975Z,72.89
2018-08-24T07:22:39.443Z,72.40
2018-08-24T07:26:03.857Z,75.32
2018-08-24T07:29:28.288Z,75.43
2018-08-24T07:32:52.834Z,74.89
2018-08-24T07:36:17.299Z,75.88
2018-08-24T07:39:41.739Z,76.45
2018-08-24T07:43:06.542Z,75.16
2018-08-24T07:46:31.064Z,77.64
2018-08-24T07:49:55.510Z,78.62
2018-08-24T07:53:19.973Z,78.42
2018-08-24T07:56:44.460Z,78.14
2018-08-24T08:00:08.932Z,78.53
2018-08-24T08:03:33.374Z,79.04
2018-08-24T08:06:57.807Z,77.42
2018-08-24T08:10:22.236Z,80.03
2018-08-24T08:13:46.644Z,79.23
2018-08-24T08:17:11.097Z,78.21
2018-08-24T08:20:35.543Z,78.96
2018-08-24T08:23:59.969Z,78.63
2018-08-24T08:27:24.377Z,79.56
2018-08-24T08:30:48.834Z,76.06
2018-08-24T08:34:13.270Z,77.81
2018-08-24T08:37:37.662Z,76.18
2018-08-24T08:41:02.090Z,75.38
2018-08-24T08:44:26.532Z,73.65
2018-08-24T08:47:50.978Z,74.17
2018-08-24T08:51:15.393Z,72.94
2018-08-24T08:54:40.103Z,72.16
2018-08-24T08:58:04.584Z,69.40
2018-08-24T09:01:29.040Z,69.22
2018-08-24T09:04:53.492Z,66.17
2018-08-24T09:08:17.936Z,65.90
2018-08-24T09:11:42.361Z,64.27
2018-08-24T09:15:07.337Z,64.53
2018-08-24T09:18:37.032Z,64.27
2018-08-24T09:23:07.351Z,59.66
2018-08-24T09:26:36.909Z,60.88
2018-08-24T09:30:02.888Z,58.13
2018-08-24T09:33:27.338Z,55.68
2018-08-24T09:36:51.811Z,53.26
2018-08-24T09:40:16.226Z,52.88
2018-08-24T09:43:45.670Z,52.09
2018-08-24T09:47:15.348Z,49.80
2018-08-24T09:50:44.899Z,51.02
2018-08-24T09:54:09.976Z,49.68
2018-08-24T09:57:34.962Z,47.90
2018-08-24T10:01:04.523Z,48.01
2018-08-24T10:04:34.273Z,47.51
2018-08-24T10:08:03.762Z,45.13
2018-08-24T10:11:28.220Z,44.16
2018-08-24T10:14:52.664Z,43.76
2018-08-24T10:18:17.083Z,43.54
2018-08-24T10:21:41.620Z,42.18
2018-08-24T10:25:06.654Z,40.58
2018-08-24T10:28:31.241Z,44.30
2018-08-24T10:31:55.653Z,40.42
2018-08-24T10:35:20.101Z,39.71
2018-08-24T10:38:44.523Z,40.01
2018-08-24T10:42:08.975Z,40.92
2018-08-24T10:45:33.445Z,39.22
2018-08-24T10:48:57.868Z,37.67
2018-08-24T10:52:22.297Z,38.54
2018-08-24T10:55:46.873Z,36.83
2018-08-24T10:59:11.275Z,36.07
2018-08-24T11:02:35.747Z,36.35
2018-08-24T11:06:01.406Z,37.61
2018-08-24T11:09:25.957Z,38.81
2018-08-24T11:12:50.396Z,36.00
2018-08-24T11:16:14.878Z,36.78
2018-08-24T11:19:39.300Z,35.04
2018-08-24T11:23:03.850Z,35.17
2018-08-24T11:26:28.267Z,34.53
2018-08-24T11:29:52.728Z,34.14
2018-08-24T11:33:17.224Z,35.44
2018-08-24T11:36:41.666Z,35.38
2018-08-24T11:40:06.338Z,37.69
2018-08-24T11:44:34.581Z,34.74
2018-08-24T11:47:59.036Z,36.61
2018-08-24T11:51:23.528Z,33.47
2018-08-24T11:54:50.946Z,30.50
2018-08-24T11:58:15.399Z,25.51
2018-08-24T12:01:42.372Z,23.76
2018-08-24T12:05:06.935Z,23.59
2018-08-24T12:08:31.407Z,26.51
2018-08-24T12:11:55.961Z,28.55
2018-08-24T12:15:20.419Z,31.60
2018-08-24T12:18:44.867Z,33.22
2018-08-24T12:22:09.300Z,33.98
2018-08-24T12:25:33.990Z,32.29
2018-08-24T12:28:58.439Z,31.82
2018-08-24T12:32:22.921Z,33.43
2018-08-24T12:35:47.437Z,31.41
2018-08-24T12:39:12.740Z,31.26
2018-08-24T12:42:37.185Z,29.37
2018-08-24T12:46:01.624Z,30.83
2018-08-24T12:49:26.310Z,27.78
2018-08-24T12:52:50.732Z,27.04
2018-08-24T12:56:19.175Z,27.40
2018-08-24T12:59:43.605Z,27.79
2018-08-24T13:03:08.102Z,27.94
2018-08-24T13:06:32.499Z,26.33
2018-08-24T13:09:56.936Z,27.94
2018-08-24T13:13:21.488Z,27.70
2018-08-24T13:16:46.138Z,28.29
2018-08-24T13:20:10.583Z,29.60
2018-08-24T13:23:35.607Z,30.43
2018-08-24T13:27:00.025Z,32.50
2018-08-24T13:30:24.469Z,33.49
2018-08-24T13:33:49.037Z,35.31
2018-08-24T13:37:13.495Z,36.09
2018-08-24T13:40:37.871Z,35.29
2018-08-24T13:44:08.869Z,32.27
2018-08-24T13:47:33.423Z,31.26
2018-08-24T13:50:57.788Z,30.78
2018-08-24T13:54:22.206Z,31.65
2018-08-24T13:57:46.660Z,31.17
2018-08-24T14:01:12.006Z,29.48
2018-08-24T14:04:36.431Z,28.52
2018-08-24T14:08:00.911Z,28.62
2018-08-24T14:11:25.315Z,29.38
2018-08-24T14:14:49.778Z,28.62
2018-08-24T14:18:17.892Z,28.42
2018-08-24T14:21:42.355Z,29.63
2018-08-24T14:25:06.873Z,27.99
2018-08-24T14:28:31.266Z,31.42
2018-08-24T14:31:55.714Z,31.02
2018-08-24T14:35:20.205Z,32.54
2018-08-24T14:38:44.733Z,32.40
2018-08-24T14:42:09.199Z,32.81
2018-08-24T14:45:33.663Z,32.36
2018-08-24T14:48:58.068Z,33.54
2018-08-24T14:52:22.678Z,32.31
2018-08-24T14:55:47.137Z,33.65
2018-08-24T14:59:11.542Z,34.10
2018-08-24T15:02:35.983Z,32.92
2018-08-24T15:06:00.385Z,32.60
2018-08-24T15:09:24.901Z,32.85
2018-08-24T15:12:49.256Z,32.95
2018-08-24T15:16:13.654Z,32.88
2018-08-24T15:19:38.035Z,32.42
2018-08-24T15:23:02.490Z,33.85
2018-08-24T15:26:26.911Z,32.41
2018-08-24T15:29:51.447Z,33.84
2018-08-24T15:33:15.855Z,34.03
2018-08-24T15:36:40.257Z,33.86
2018-08-24T15:40:06.179Z,33.62
2018-08-24T15:43:30.621Z,34.21
2018-08-24T15:46:55.059Z,33.32
2018-08-24T15:50:19.505Z,35.66
2018-08-24T15:53:44.773Z,35.36
2018-08-24T15:57:09.291Z,34.28
2018-08-24T16:00:33.724Z,34.83
2018-08-24T16:03:58.172Z,35.95
2018-08-24T16:07:22.581Z,34.71
2018-08-24T16:10:47.049Z,34.99
2018-08-24T16:14:11.503Z,34.87
2018-08-24T16:17:35.940Z,36.36
2018-08-24T16:21:00.326Z,36.02
2018-08-24T16:24:24.755Z,36.47
2018-08-24T16:27:49.203Z,35.51
2018-08-24T16:31:13.650Z,35.88
2018-08-24T16:34:38.063Z,36.33
2018-08-24T16:38:02.629Z,35.69
2018-08-24T16:41:27.084Z,36.41
2018-08-24T16:44:51.504Z,36.99
2018-08-24T16:48:15.935Z,37.61
2018-08-24T16:51:40.333Z,37.40
2018-08-24T16:55:04.782Z,36.59
2018-08-24T16:58:29.217Z,37.26
2018-08-24T17:01:53.667Z,41.86
2018-08-24T17:05:18.139Z,38.20
2018-08-24T17:08:42.601Z,37.90
2018-08-24T17:12:07.089Z,38.43
2018-08-24T17:15:31.551Z,39.84
2018-08-24T17:18:56.159Z,37.93
2018-08-24T17:22:20.620Z,39.07
2018-08-24T17:25:45.018Z,38.59
2018-08-24T17:29:09.487Z,38.83
2018-08-24T17:32:33.890Z,38.96
2018-08-24T17:35:58.332Z,39.38
2018-08-24T17:39:22.800Z,40.82
2018-08-24T17:42:47.264Z,40.96
2018-08-24T17:46:11.727Z,40.68
2018-08-24T17:49:36.181Z,40.40
2018-08-24T17:53:00.623Z,41.27
2018-08-24T17:56:25.083Z,41.03
2018-08-24T17:59:49.501Z,40.79
2018-08-24T18:03:14.112Z,41.37
2018-08-24T18:06:38.600Z,40.49
2018-08-24T18:10:03.156Z,40.01
2018-08-24T18:13:42.373Z,41.01
2018-08-24T18:17:08.720Z,42.98
2018-08-24T18:20:33.325Z,44.31
2018-08-24T18:23:57.741Z,42.55
2018-08-24T18:27:22.178Z,42.89
2018-08-24T18:30:46.692Z,43.24
2018-08-24T18:34:11.106Z,43.56
2018-08-24T18:37:35.890Z,43.61
2018-08-24T18:41:00.852Z,44.09
2018-08-24T18:44:28.675Z,44.19
2018-08-24T18:47:53.853Z,45.60
2018-08-24T18:51:18.252Z,44.91
2018-08-24T18:54:43.395Z,45.14
2018-08-24T18:58:09.320Z,45.83
2018-08-24T19:01:35.401Z,43.54
2018-08-24T19:05:00.505Z,44.97
2018-08-24T19:08:25.086Z,46.97
2018-08-24T19:11:54.784Z,48.13
2018-08-24T19:15:21.847Z,46.90
2018-08-24T19:18:52.732Z,48.12
2018-08-24T19:22:18.075Z,44.08
2018-08-24T19:25:43.398Z,48.86
2018-08-24T19:29:13.661Z,46.17
2018-08-24T19:32:40.232Z,47.88
2018-08-24T19:36:05.728Z,48.20
2018-08-24T19:39:31.247Z,47.00
2018-08-24T19:42:57.423Z,44.93
2018-08-24T19:46:22.178Z,45.89
2018-08-24T19:49:46.626Z,46.42
2018-08-24T19:53:11.100Z,45.53
2018-08-24T19:56:35.645Z,44.88
2018-08-24T20:00:00.049Z,43.60
2018-08-24T20:03:24.532Z,45.95
2018-08-24T20:06:54.333Z,44.65
2018-08-24T20:10:19.706Z,43.51
2018-08-24T20:13:44.723Z,44.04
2018-08-24T20:17:15.624Z,43.49
2018-08-24T20:20:41.069Z,44.69
2018-08-24T20:24:06.583Z,46.17
2018-08-24T20:27:31.761Z,45.16
2018-08-24T20:30:57.457Z,46.42
2018-08-24T20:34:23.235Z,47.24
2018-08-24T20:37:48.806Z,46.67
2018-08-24T20:41:14.564Z,48.54
2018-08-24T20:44:39.874Z,47.03
2018-08-24T20:48:05.530Z,46.83
2018-08-24T20:51:30.257Z,48.55
2018-08-24T20:54:54.716Z,47.92
2018-08-24T20:58:19.178Z,48.99
2018-08-24T21:01:53.247Z,49.29
2018-08-24T21:05:17.686Z,48.49
2018-08-24T21:08:42.117Z,48.08
2018-08-24T21:12:07.159Z,48.62
2018-08-24T21:15:31.649Z,48.85
2018-08-24T21:18:56.872Z,49.38
2018-08-24T21:22:21.252Z,50.89
2018-08-24T21:25:45.656Z,49.84
2018-08-24T21:29:10.069Z,49.49
2018-08-24T21:32:34.448Z,49.22
2018-08-24T21:35:58.904Z,49.36
2018-08-24T21:39:23.514Z,47.23
2018-08-24T21:42:47.944Z,47.56
2018-08-24T21:46:12.402Z,46.30
2018-08-24T21:49:36.807Z,45.63
2018-08-24T21:53:01.211Z,45.24
2018-08-24T21:56:25.633Z,44.34
2018-08-24T21:59:50.037Z,44.33
2018-08-24T22:03:14.456Z,44.55
2018-08-24T22:06:38.912Z,44.47
2018-08-24T22:10:06.333Z,44.89
2018-08-24T22:13:30.734Z,44.85
2018-08-24T22:16:55.169Z,45.13
2018-08-24T22:20:19.534Z,45.75
2018-08-24T22:23:43.929Z,45.35
2018-08-24T22:27:08.332Z,45.73
2018-08-24T22:30:32.746Z,44.60
2018-08-24T22:33:57.258Z,44.91
2018-08-24T22:37:21.701Z,45.05
2018-08-24T22:40:46.102Z,45.46
2018-08-24T22:44:10.562Z,45.66
2018-08-24T22:47:35.018Z,46.30
2018-08-24T22:50:59.432Z,46.47
2018-08-24T22:54:23.965Z,46.69
2018-08-24T22:57:48.383Z,45.97
2018-08-24T23:01:12.900Z,45.91
2018-08-24T23:04:37.367Z,45.67
2018-08-24T23:08:01.780Z,46.60
2018-08-24T23:11:26.313Z,45.83
2018-08-24T23:14:50.694Z,46.16
2018-08-24T23:18:15.098Z,46.10
2018-08-24T23:21:39.575Z,47.00
2018-08-24T23:25:04.027Z,46.93
2018-08-24T23:28:28.450Z,47.35
2018-08-24T23:31:52.868Z,47.07
2018-08-24T23:35:17.253Z,46.91
2018-08-24T23:38:41.675Z,47.34
2018-08-24T23:42:06.155Z,46.59
2018-08-24T23:45:30.541Z,47.00
2018-08-24T23:48:54.922Z,46.99
2018-08-24T23:52:19.351Z,47.53
2018-08-24T23:55:43.772Z,48.51
2018-08-24T23:59:08.160Z,47.69
